sensor_id;sensor_type;location;lat;lon;timestamp;temperature;humidity
26336;DHT22;14047;50.936;4.654;2024-01-30T00:00:00;11.60;99.90
26336;DHT22;14047;50.936;4.654;2024-01-30T00:02:26;11.70;99.90
26336;DHT22;14047;50.936;4.654;2024-01-30T00:04:52;11.60;99.90
26336;DHT22;14047;50.936;4.654;2024-01-30T00:07:18;11.60;99.90
26336;DHT22;14047;50.936;4.654;2024-01-30T00:09:46;11.70;99.90
26336;DHT22;14047;50.936;4.654;2024-01-30T00:12:13;11.70;99.90
26336;DHT22;14047;50.936;4.654;2024-01-30T00:14:41;11.70;99.90
26336;DHT22;14047;50.936;4.654;2024-01-30T00:17:09;11.70;99.90
26336;DHT22;14047;50.936;4.654;2024-01-30T00:19:35;11.70;99.90
26336;DHT22;14047;50.936;4.654;2024-01-30T00:22:01;11.80;99.90
26336;DHT22;14047;50.936;4.654;2024-01-30T00:24:27;11.80;99.90
26336;DHT22;14047;50.936;4.654;2024-01-30T00:26:53;11.90;99.90
26336;DHT22;14047;50.936;4.654;2024-01-30T00:29:19;11.90;99.90
26336;DHT22;14047;50.936;4.654;2024-01-30T00:31:46;11.90;99.90
26336;DHT22;14047;50.936;4.654;2024-01-30T00:34:12;12.00;99.90
26336;DHT22;14047;50.936;4.654;2024-01-30T00:36:38;11.90;99.90
26336;DHT22;14047;50.936;4.654;2024-01-30T00:39:04;11.90;99.90
26336;DHT22;14047;50.936;4.654;2024-01-30T00:41:35;11.80;99.90
26336;DHT22;14047;50.936;4.654;2024-01-30T00:44:01;11.70;99.90
26336;DHT22;14047;50.936;4.654;2024-01-30T00:46:26;11.70;99.90
26336;DHT22;14047;50.936;4.654;2024-01-30T00:48:53;11.70;99.90
26336;DHT22;14047;50.936;4.654;2024-01-30T00:51:19;11.80;99.90
26336;DHT22;14047;50.936;4.654;2024-01-30T00:53:45;11.80;99.90
26336;DHT22;14047;50.936;4.654;2024-01-30T00:56:11;11.90;99.90
26336;DHT22;14047;50.936;4.654;2024-01-30T00:58:37;11.90;99.90
26336;DHT22;14047;50.936;4.654;2024-01-30T01:01:03;11.90;99.90
26336;DHT22;14047;50.936;4.654;2024-01-30T01:03:29;12.00;99.90
26336;DHT22;14047;50.936;4.654;2024-01-30T01:05:55;12.00;99.90
26336;DHT22;14047;50.936;4.654;2024-01-30T01:08:21;12.10;99.90
26336;DHT22;14047;50.936;4.654;2024-01-30T01:10:47;12.10;99.90
26336;DHT22;14047;50.936;4.654;2024-01-30T01:13:13;12.10;99.90
26336;DHT22;14047;50.936;4.654;2024-01-30T01:15:39;12.10;99.90
26336;DHT22;14047;50.936;4.654;2024-01-30T01:18:05;12.10;99.90
26336;DHT22;14047;50.936;4.654;2024-01-30T01:20:31;12.20;99.90
26336;DHT22;14047;50.936;4.654;2024-01-30T01:22:57;12.20;99.90
26336;DHT22;14047;50.936;4.654;2024-01-30T01:25:23;12.20;99.90
26336;DHT22;14047;50.936;4.654;2024-01-30T01:27:50;12.20;99.90
26336;DHT22;14047;50.936;4.654;2024-01-30T01:30:19;12.30;99.90
26336;DHT22;14047;50.936;4.654;2024-01-30T01:32:48;12.30;99.90
26336;DHT22;14047;50.936;4.654;2024-01-30T01:35:24;12.30;99.90
26336;DHT22;14047;50.936;4.654;2024-01-30T01:37:51;12.40;99.90
26336;DHT22;14047;50.936;4.654;2024-01-30T01:40:24;12.40;99.90
26336;DHT22;14047;50.936;4.654;2024-01-30T01:42:51;12.40;99.90
26336;DHT22;14047;50.936;4.654;2024-01-30T01:45:21;12.30;99.90
26336;DHT22;14047;50.936;4.654;2024-01-30T01:47:50;12.30;99.90
26336;DHT22;14047;50.936;4.654;2024-01-30T01:50:17;12.20;99.90
26336;DHT22;14047;50.936;4.654;2024-01-30T01:52:46;12.10;99.90
26336;DHT22;14047;50.936;4.654;2024-01-30T01:55:14;12.10;99.90
26336;DHT22;14047;50.936;4.654;2024-01-30T01:57:41;12.10;99.90
26336;DHT22;14047;50.936;4.654;2024-01-30T02:00:08;12.20;99.90
26336;DHT22;14047;50.936;4.654;2024-01-30T02:02:36;12.20;99.90
26336;DHT22;14047;50.936;4.654;2024-01-30T02:05:03;12.20;99.90
26336;DHT22;14047;50.936;4.654;2024-01-30T02:07:29;12.10;99.90
26336;DHT22;14047;50.936;4.654;2024-01-30T02:09:56;12.10;99.90
26336;DHT22;14047;50.936;4.654;2024-01-30T02:12:22;12.10;99.90
26336;DHT22;14047;50.936;4.654;2024-01-30T02:14:48;12.00;99.90
26336;DHT22;14047;50.936;4.654;2024-01-30T02:17:16;12.10;99.90
26336;DHT22;14047;50.936;4.654;2024-01-30T02:19:42;12.10;99.90
26336;DHT22;14047;50.936;4.654;2024-01-30T02:22:08;12.00;99.90
26336;DHT22;14047;50.936;4.654;2024-01-30T02:24:35;12.00;99.90
26336;DHT22;14047;50.936;4.654;2024-01-30T02:27:01;12.00;99.90
26336;DHT22;14047;50.936;4.654;2024-01-30T02:29:27;11.90;99.90
26336;DHT22;14047;50.936;4.654;2024-01-30T02:31:52;11.90;99.90
26336;DHT22;14047;50.936;4.654;2024-01-30T02:34:19;11.90;99.90
26336;DHT22;14047;50.936;4.654;2024-01-30T02:36:45;11.90;99.90
26336;DHT22;14047;50.936;4.654;2024-01-30T02:39:11;11.90;99.90
26336;DHT22;14047;50.936;4.654;2024-01-30T02:41:37;11.90;99.90
26336;DHT22;14047;50.936;4.654;2024-01-30T02:44:03;11.90;99.90
26336;DHT22;14047;50.936;4.654;2024-01-30T02:46:30;11.90;99.90
26336;DHT22;14047;50.936;4.654;2024-01-30T02:48:56;12.00;99.90
26336;DHT22;14047;50.936;4.654;2024-01-30T02:51:22;12.00;99.90
26336;DHT22;14047;50.936;4.654;2024-01-30T02:53:48;11.90;99.90
26336;DHT22;14047;50.936;4.654;2024-01-30T02:56:13;11.80;99.90
26336;DHT22;14047;50.936;4.654;2024-01-30T02:58:40;11.90;99.90
26336;DHT22;14047;50.936;4.654;2024-01-30T03:01:06;11.90;99.90
26336;DHT22;14047;50.936;4.654;2024-01-30T03:03:33;11.80;99.90
26336;DHT22;14047;50.936;4.654;2024-01-30T03:06:00;11.80;99.90
26336;DHT22;14047;50.936;4.654;2024-01-30T03:08:27;11.90;99.90
26336;DHT22;14047;50.936;4.654;2024-01-30T03:10:53;12.00;99.90
26336;DHT22;14047;50.936;4.654;2024-01-30T03:13:19;12.10;99.90
26336;DHT22;14047;50.936;4.654;2024-01-30T03:15:45;12.10;99.90
26336;DHT22;14047;50.936;4.654;2024-01-30T03:18:11;12.10;99.90
26336;DHT22;14047;50.936;4.654;2024-01-30T03:20:37;12.20;99.90
26336;DHT22;14047;50.936;4.654;2024-01-30T03:23:03;12.10;99.90
26336;DHT22;14047;50.936;4.654;2024-01-30T03:25:29;12.10;99.90
26336;DHT22;14047;50.936;4.654;2024-01-30T03:27:55;12.10;99.90
26336;DHT22;14047;50.936;4.654;2024-01-30T03:30:21;12.00;99.90
26336;DHT22;14047;50.936;4.654;2024-01-30T03:32:48;12.00;99.90
26336;DHT22;14047;50.936;4.654;2024-01-30T03:35:14;12.00;99.90
26336;DHT22;14047;50.936;4.654;2024-01-30T03:37:40;12.00;99.90
26336;DHT22;14047;50.936;4.654;2024-01-30T03:40:07;12.00;99.90
26336;DHT22;14047;50.936;4.654;2024-01-30T03:42:33;11.90;99.90
26336;DHT22;14047;50.936;4.654;2024-01-30T03:44:59;11.90;99.90
26336;DHT22;14047;50.936;4.654;2024-01-30T03:47:25;11.90;99.90
26336;DHT22;14047;50.936;4.654;2024-01-30T03:49:51;12.00;99.90
26336;DHT22;14047;50.936;4.654;2024-01-30T03:52:17;12.00;99.90
26336;DHT22;14047;50.936;4.654;2024-01-30T03:54:43;12.10;99.90
26336;DHT22;14047;50.936;4.654;2024-01-30T03:57:09;12.00;99.90
26336;DHT22;14047;50.936;4.654;2024-01-30T03:59:34;12.10;99.90
26336;DHT22;14047;50.936;4.654;2024-01-30T04:02:00;12.10;99.90
26336;DHT22;14047;50.936;4.654;2024-01-30T04:04:26;12.20;99.90
26336;DHT22;14047;50.936;4.654;2024-01-30T04:06:52;12.20;99.90
26336;DHT22;14047;50.936;4.654;2024-01-30T04:09:18;12.30;99.90
26336;DHT22;14047;50.936;4.654;2024-01-30T04:11:44;12.40;99.90
26336;DHT22;14047;50.936;4.654;2024-01-30T04:14:10;12.40;99.90
26336;DHT22;14047;50.936;4.654;2024-01-30T04:16:36;12.50;99.90
26336;DHT22;14047;50.936;4.654;2024-01-30T04:19:02;12.50;99.90
26336;DHT22;14047;50.936;4.654;2024-01-30T04:21:28;12.60;99.90
26336;DHT22;14047;50.936;4.654;2024-01-30T04:23:54;12.60;99.90
26336;DHT22;14047;50.936;4.654;2024-01-30T04:26:20;12.60;99.90
26336;DHT22;14047;50.936;4.654;2024-01-30T04:28:46;12.60;99.90
26336;DHT22;14047;50.936;4.654;2024-01-30T04:31:12;12.70;99.90
26336;DHT22;14047;50.936;4.654;2024-01-30T04:33:38;12.60;99.90
26336;DHT22;14047;50.936;4.654;2024-01-30T04:36:07;12.50;99.90
26336;DHT22;14047;50.936;4.654;2024-01-30T04:38:34;12.50;99.90
26336;DHT22;14047;50.936;4.654;2024-01-30T04:41:00;12.50;99.90
26336;DHT22;14047;50.936;4.654;2024-01-30T04:43:26;12.40;99.90
26336;DHT22;14047;50.936;4.654;2024-01-30T04:45:53;12.50;99.90
26336;DHT22;14047;50.936;4.654;2024-01-30T04:48:18;12.50;99.90
26336;DHT22;14047;50.936;4.654;2024-01-30T04:50:44;12.50;99.90
26336;DHT22;14047;50.936;4.654;2024-01-30T04:53:10;12.40;99.90
26336;DHT22;14047;50.936;4.654;2024-01-30T04:55:36;12.40;99.90
26336;DHT22;14047;50.936;4.654;2024-01-30T04:58:02;12.40;99.90
26336;DHT22;14047;50.936;4.654;2024-01-30T05:00:28;12.40;99.90
26336;DHT22;14047;50.936;4.654;2024-01-30T05:02:57;12.50;99.90
26336;DHT22;14047;50.936;4.654;2024-01-30T05:05:23;12.50;99.90
26336;DHT22;14047;50.936;4.654;2024-01-30T05:07:49;12.60;99.90
26336;DHT22;14047;50.936;4.654;2024-01-30T05:10:15;12.60;99.90
26336;DHT22;14047;50.936;4.654;2024-01-30T05:12:41;12.60;99.90
26336;DHT22;14047;50.936;4.654;2024-01-30T05:15:07;12.60;99.90
26336;DHT22;14047;50.936;4.654;2024-01-30T05:17:33;12.60;99.90
26336;DHT22;14047;50.936;4.654;2024-01-30T05:19:59;12.60;99.90
26336;DHT22;14047;50.936;4.654;2024-01-30T05:22:25;12.60;99.90
26336;DHT22;14047;50.936;4.654;2024-01-30T05:24:51;12.60;99.90
26336;DHT22;14047;50.936;4.654;2024-01-30T05:27:17;12.70;99.90
26336;DHT22;14047;50.936;4.654;2024-01-30T05:29:43;12.70;99.90
26336;DHT22;14047;50.936;4.654;2024-01-30T05:32:09;12.70;99.90
26336;DHT22;14047;50.936;4.654;2024-01-30T05:34:36;12.80;99.90
26336;DHT22;14047;50.936;4.654;2024-01-30T05:37:02;12.70;99.90
26336;DHT22;14047;50.936;4.654;2024-01-30T05:39:28;12.70;99.90
26336;DHT22;14047;50.936;4.654;2024-01-30T05:41:54;12.70;99.90
26336;DHT22;14047;50.936;4.654;2024-01-30T05:44:20;12.70;99.90
26336;DHT22;14047;50.936;4.654;2024-01-30T05:46:46;12.70;99.90
26336;DHT22;14047;50.936;4.654;2024-01-30T05:49:12;12.70;99.90
26336;DHT22;14047;50.936;4.654;2024-01-30T05:51:38;12.80;99.90
26336;DHT22;14047;50.936;4.654;2024-01-30T05:54:04;12.60;99.90
26336;DHT22;14047;50.936;4.654;2024-01-30T05:56:30;12.60;99.90
26336;DHT22;14047;50.936;4.654;2024-01-30T05:58:56;12.60;99.90
26336;DHT22;14047;50.936;4.654;2024-01-30T06:01:22;12.60;99.90
26336;DHT22;14047;50.936;4.654;2024-01-30T06:03:48;12.60;99.90
26336;DHT22;14047;50.936;4.654;2024-01-30T06:06:13;12.60;99.90
26336;DHT22;14047;50.936;4.654;2024-01-30T06:08:39;12.60;99.90
26336;DHT22;14047;50.936;4.654;2024-01-30T06:11:05;12.60;99.90
26336;DHT22;14047;50.936;4.654;2024-01-30T06:13:31;12.60;99.90
26336;DHT22;14047;50.936;4.654;2024-01-30T06:15:58;12.60;99.90
26336;DHT22;14047;50.936;4.654;2024-01-30T06:18:25;12.70;99.90
26336;DHT22;14047;50.936;4.654;2024-01-30T06:20:52;12.50;99.90
26336;DHT22;14047;50.936;4.654;2024-01-30T06:23:18;12.60;99.90
26336;DHT22;14047;50.936;4.654;2024-01-30T06:25:45;12.60;99.90
26336;DHT22;14047;50.936;4.654;2024-01-30T06:28:11;12.50;99.90
26336;DHT22;14047;50.936;4.654;2024-01-30T06:30:37;12.40;99.90
26336;DHT22;14047;50.936;4.654;2024-01-30T06:33:03;12.40;99.90
26336;DHT22;14047;50.936;4.654;2024-01-30T06:35:29;12.40;99.90
26336;DHT22;14047;50.936;4.654;2024-01-30T06:37:55;12.50;99.90
26336;DHT22;14047;50.936;4.654;2024-01-30T06:40:20;12.50;99.90
26336;DHT22;14047;50.936;4.654;2024-01-30T06:42:46;12.50;99.90
26336;DHT22;14047;50.936;4.654;2024-01-30T06:45:12;12.50;99.90
26336;DHT22;14047;50.936;4.654;2024-01-30T06:47:38;12.40;99.90
26336;DHT22;14047;50.936;4.654;2024-01-30T06:50:05;12.30;99.90
26336;DHT22;14047;50.936;4.654;2024-01-30T06:52:31;12.00;99.90
26336;DHT22;14047;50.936;4.654;2024-01-30T06:54:57;12.00;99.90
26336;DHT22;14047;50.936;4.654;2024-01-30T06:57:23;12.00;99.90
26336;DHT22;14047;50.936;4.654;2024-01-30T06:59:49;12.00;99.90
26336;DHT22;14047;50.936;4.654;2024-01-30T07:02:15;12.00;99.90
26336;DHT22;14047;50.936;4.654;2024-01-30T07:04:41;11.90;99.90
26336;DHT22;14047;50.936;4.654;2024-01-30T07:07:07;11.90;99.90
26336;DHT22;14047;50.936;4.654;2024-01-30T07:09:38;11.70;99.90
26336;DHT22;14047;50.936;4.654;2024-01-30T07:12:04;11.50;99.90
26336;DHT22;14047;50.936;4.654;2024-01-30T07:14:31;11.40;99.90
26336;DHT22;14047;50.936;4.654;2024-01-30T07:17:09;11.30;99.90
26336;DHT22;14047;50.936;4.654;2024-01-30T07:19:35;11.30;99.90
26336;DHT22;14047;50.936;4.654;2024-01-30T07:22:02;11.20;99.90
26336;DHT22;14047;50.936;4.654;2024-01-30T07:24:29;11.20;99.90
26336;DHT22;14047;50.936;4.654;2024-01-30T07:26:55;11.30;99.90
26336;DHT22;14047;50.936;4.654;2024-01-30T07:29:21;11.20;99.90
26336;DHT22;14047;50.936;4.654;2024-01-30T07:31:48;11.20;99.90
26336;DHT22;14047;50.936;4.654;2024-01-30T07:34:14;11.00;99.90
26336;DHT22;14047;50.936;4.654;2024-01-30T07:36:40;11.10;99.90
26336;DHT22;14047;50.936;4.654;2024-01-30T07:39:06;11.30;99.90
26336;DHT22;14047;50.936;4.654;2024-01-30T07:41:32;11.40;99.90
26336;DHT22;14047;50.936;4.654;2024-01-30T07:43:58;11.70;99.90
26336;DHT22;14047;50.936;4.654;2024-01-30T07:46:24;11.90;99.90
26336;DHT22;14047;50.936;4.654;2024-01-30T07:48:53;12.00;99.90
26336;DHT22;14047;50.936;4.654;2024-01-30T07:51:19;12.20;99.90
26336;DHT22;14047;50.936;4.654;2024-01-30T07:53:51;12.40;99.90
26336;DHT22;14047;50.936;4.654;2024-01-30T07:56:23;12.60;99.90
26336;DHT22;14047;50.936;4.654;2024-01-30T07:58:49;12.60;99.90
26336;DHT22;14047;50.936;4.654;2024-01-30T08:01:16;12.60;99.90
26336;DHT22;14047;50.936;4.654;2024-01-30T08:03:42;12.70;99.90
26336;DHT22;14047;50.936;4.654;2024-01-30T08:06:09;12.70;99.90
26336;DHT22;14047;50.936;4.654;2024-01-30T08:08:37;12.70;99.90
26336;DHT22;14047;50.936;4.654;2024-01-30T08:11:04;12.80;99.90
26336;DHT22;14047;50.936;4.654;2024-01-30T08:13:30;13.00;99.90
26336;DHT22;14047;50.936;4.654;2024-01-30T08:15:56;13.10;99.90
26336;DHT22;14047;50.936;4.654;2024-01-30T08:18:23;13.00;99.90
26336;DHT22;14047;50.936;4.654;2024-01-30T08:20:49;13.10;99.90
26336;DHT22;14047;50.936;4.654;2024-01-30T08:23:15;13.30;99.90
26336;DHT22;14047;50.936;4.654;2024-01-30T08:25:41;13.40;99.90
26336;DHT22;14047;50.936;4.654;2024-01-30T08:28:07;13.50;99.90
26336;DHT22;14047;50.936;4.654;2024-01-30T08:30:33;13.60;99.90
26336;DHT22;14047;50.936;4.654;2024-01-30T08:32:59;13.70;99.90
26336;DHT22;14047;50.936;4.654;2024-01-30T08:35:25;13.80;99.90
26336;DHT22;14047;50.936;4.654;2024-01-30T08:37:51;13.80;99.90
26336;DHT22;14047;50.936;4.654;2024-01-30T08:40:17;13.80;99.90
26336;DHT22;14047;50.936;4.654;2024-01-30T08:42:44;13.80;99.90
26336;DHT22;14047;50.936;4.654;2024-01-30T08:45:13;13.80;99.90
26336;DHT22;14047;50.936;4.654;2024-01-30T08:47:41;13.90;99.90
26336;DHT22;14047;50.936;4.654;2024-01-30T08:50:12;14.00;99.90
26336;DHT22;14047;50.936;4.654;2024-01-30T08:52:41;13.90;99.90
26336;DHT22;14047;50.936;4.654;2024-01-30T08:55:07;13.90;99.90
26336;DHT22;14047;50.936;4.654;2024-01-30T08:57:33;13.90;99.90
26336;DHT22;14047;50.936;4.654;2024-01-30T08:59:59;13.90;99.90
26336;DHT22;14047;50.936;4.654;2024-01-30T09:02:26;14.10;99.90
26336;DHT22;14047;50.936;4.654;2024-01-30T09:04:52;14.20;99.90
26336;DHT22;14047;50.936;4.654;2024-01-30T09:07:18;14.20;99.90
26336;DHT22;14047;50.936;4.654;2024-01-30T09:09:44;14.30;99.90
26336;DHT22;14047;50.936;4.654;2024-01-30T09:12:10;14.30;99.90
26336;DHT22;14047;50.936;4.654;2024-01-30T09:14:39;14.40;99.90
26336;DHT22;14047;50.936;4.654;2024-01-30T09:17:05;14.40;99.90
26336;DHT22;14047;50.936;4.654;2024-01-30T09:19:31;14.40;99.90
26336;DHT22;14047;50.936;4.654;2024-01-30T09:21:57;14.40;99.90
26336;DHT22;14047;50.936;4.654;2024-01-30T09:24:22;14.20;99.90
26336;DHT22;14047;50.936;4.654;2024-01-30T09:26:48;14.20;99.90
26336;DHT22;14047;50.936;4.654;2024-01-30T09:29:15;14.20;99.90
26336;DHT22;14047;50.936;4.654;2024-01-30T09:31:47;14.00;99.90
26336;DHT22;14047;50.936;4.654;2024-01-30T09:34:14;13.90;99.90
26336;DHT22;14047;50.936;4.654;2024-01-30T09:36:40;13.70;99.90
26336;DHT22;14047;50.936;4.654;2024-01-30T09:39:06;13.80;99.90
26336;DHT22;14047;50.936;4.654;2024-01-30T09:42:00;13.80;99.90
26336;DHT22;14047;50.936;4.654;2024-01-30T09:44:29;13.90;99.90
26336;DHT22;14047;50.936;4.654;2024-01-30T09:46:57;13.80;99.90
26336;DHT22;14047;50.936;4.654;2024-01-30T09:49:32;13.70;99.90
26336;DHT22;14047;50.936;4.654;2024-01-30T09:51:58;13.60;99.90
26336;DHT22;14047;50.936;4.654;2024-01-30T09:54:24;13.70;99.90
26336;DHT22;14047;50.936;4.654;2024-01-30T09:56:50;13.60;99.90
26336;DHT22;14047;50.936;4.654;2024-01-30T09:59:17;13.30;99.90
26336;DHT22;14047;50.936;4.654;2024-01-30T10:01:46;13.30;99.90
26336;DHT22;14047;50.936;4.654;2024-01-30T10:04:12;13.10;99.90
26336;DHT22;14047;50.936;4.654;2024-01-30T10:06:38;13.00;99.90
26336;DHT22;14047;50.936;4.654;2024-01-30T10:09:07;12.70;99.90
26336;DHT22;14047;50.936;4.654;2024-01-30T10:11:36;12.60;99.90
26336;DHT22;14047;50.936;4.654;2024-01-30T10:14:02;12.40;99.90
26336;DHT22;14047;50.936;4.654;2024-01-30T10:16:28;12.30;99.90
26336;DHT22;14047;50.936;4.654;2024-01-30T10:18:54;12.30;99.90
26336;DHT22;14047;50.936;4.654;2024-01-30T10:21:21;12.30;99.90
26336;DHT22;14047;50.936;4.654;2024-01-30T10:23:47;12.20;99.90
26336;DHT22;14047;50.936;4.654;2024-01-30T10:26:13;12.20;99.90
26336;DHT22;14047;50.936;4.654;2024-01-30T10:28:42;12.30;99.90
26336;DHT22;14047;50.936;4.654;2024-01-30T10:31:08;12.20;99.90
26336;DHT22;14047;50.936;4.654;2024-01-30T10:33:39;12.30;99.90
26336;DHT22;14047;50.936;4.654;2024-01-30T10:36:05;12.40;99.90
26336;DHT22;14047;50.936;4.654;2024-01-30T10:38:32;12.40;99.90
26336;DHT22;14047;50.936;4.654;2024-01-30T10:41:00;12.40;99.90
26336;DHT22;14047;50.936;4.654;2024-01-30T10:43:41;12.40;99.90
26336;DHT22;14047;50.936;4.654;2024-01-30T10:46:18;12.10;99.90
26336;DHT22;14047;50.936;4.654;2024-01-30T10:48:59;12.10;99.90
26336;DHT22;14047;50.936;4.654;2024-01-30T10:51:29;12.00;99.90
26336;DHT22;14047;50.936;4.654;2024-01-30T10:53:56;12.00;99.90
26336;DHT22;14047;50.936;4.654;2024-01-30T10:56:23;11.90;99.90
26336;DHT22;14047;50.936;4.654;2024-01-30T10:58:50;11.90;99.90
26336;DHT22;14047;50.936;4.654;2024-01-30T11:01:22;11.90;99.90
26336;DHT22;14047;50.936;4.654;2024-01-30T11:03:55;11.80;99.90
26336;DHT22;14047;50.936;4.654;2024-01-30T11:06:23;11.80;99.90
26336;DHT22;14047;50.936;4.654;2024-01-30T11:09:12;11.80;99.90
26336;DHT22;14047;50.936;4.654;2024-01-30T11:11:49;11.90;99.90
26336;DHT22;14047;50.936;4.654;2024-01-30T11:14:15;11.90;99.90
26336;DHT22;14047;50.936;4.654;2024-01-30T11:16:41;11.90;99.90
26336;DHT22;14047;50.936;4.654;2024-01-30T11:19:11;12.00;99.90
26336;DHT22;14047;50.936;4.654;2024-01-30T11:21:45;11.90;99.90
26336;DHT22;14047;50.936;4.654;2024-01-30T11:24:14;11.90;99.90
26336;DHT22;14047;50.936;4.654;2024-01-30T11:26:42;11.80;99.90
26336;DHT22;14047;50.936;4.654;2024-01-30T11:29:08;11.80;99.90
26336;DHT22;14047;50.936;4.654;2024-01-30T11:31:35;11.70;99.90
26336;DHT22;14047;50.936;4.654;2024-01-30T11:34:01;11.60;99.90
26336;DHT22;14047;50.936;4.654;2024-01-30T11:36:27;11.60;99.90
26336;DHT22;14047;50.936;4.654;2024-01-30T11:38:57;11.60;99.90
26336;DHT22;14047;50.936;4.654;2024-01-30T11:41:23;11.50;99.90
26336;DHT22;14047;50.936;4.654;2024-01-30T11:43:54;11.40;99.90
26336;DHT22;14047;50.936;4.654;2024-01-30T11:46:20;11.40;99.90
26336;DHT22;14047;50.936;4.654;2024-01-30T11:48:46;11.40;99.90
26336;DHT22;14047;50.936;4.654;2024-01-30T11:51:14;11.40;99.90
26336;DHT22;14047;50.936;4.654;2024-01-30T11:53:41;11.40;99.90
26336;DHT22;14047;50.936;4.654;2024-01-30T11:56:07;11.40;99.90
26336;DHT22;14047;50.936;4.654;2024-01-30T11:58:36;11.40;99.90
26336;DHT22;14047;50.936;4.654;2024-01-30T12:01:02;11.40;99.90
26336;DHT22;14047;50.936;4.654;2024-01-30T12:03:28;11.40;99.90
26336;DHT22;14047;50.936;4.654;2024-01-30T12:05:56;11.40;99.90
26336;DHT22;14047;50.936;4.654;2024-01-30T12:08:23;11.40;99.90
26336;DHT22;14047;50.936;4.654;2024-01-30T12:10:56;11.40;99.90
26336;DHT22;14047;50.936;4.654;2024-01-30T12:13:23;11.50;99.90
26336;DHT22;14047;50.936;4.654;2024-01-30T12:15:49;11.50;99.90
26336;DHT22;14047;50.936;4.654;2024-01-30T12:18:18;11.40;99.90
26336;DHT22;14047;50.936;4.654;2024-01-30T12:20:45;11.40;99.90
26336;DHT22;14047;50.936;4.654;2024-01-30T12:23:12;11.40;99.90
26336;DHT22;14047;50.936;4.654;2024-01-30T12:25:42;11.50;99.90
26336;DHT22;14047;50.936;4.654;2024-01-30T12:28:11;11.50;99.90
26336;DHT22;14047;50.936;4.654;2024-01-30T12:30:37;11.40;99.90
26336;DHT22;14047;50.936;4.654;2024-01-30T12:33:05;11.40;99.90
26336;DHT22;14047;50.936;4.654;2024-01-30T12:35:34;11.40;99.90
26336;DHT22;14047;50.936;4.654;2024-01-30T12:38:02;11.40;99.90
26336;DHT22;14047;50.936;4.654;2024-01-30T12:40:28;11.40;99.90
26336;DHT22;14047;50.936;4.654;2024-01-30T12:42:56;11.30;99.90
26336;DHT22;14047;50.936;4.654;2024-01-30T12:45:22;11.40;99.90
26336;DHT22;14047;50.936;4.654;2024-01-30T12:47:48;11.60;99.90
26336;DHT22;14047;50.936;4.654;2024-01-30T12:50:14;11.80;99.90
26336;DHT22;14047;50.936;4.654;2024-01-30T12:52:43;11.90;99.90
26336;DHT22;14047;50.936;4.654;2024-01-30T12:55:09;11.80;99.90
26336;DHT22;14047;50.936;4.654;2024-01-30T12:57:34;11.80;99.90
26336;DHT22;14047;50.936;4.654;2024-01-30T13:00:00;12.00;99.90
26336;DHT22;14047;50.936;4.654;2024-01-30T13:02:26;12.00;99.90
26336;DHT22;14047;50.936;4.654;2024-01-30T13:05:00;11.90;99.90
26336;DHT22;14047;50.936;4.654;2024-01-30T13:07:26;11.80;99.90
26336;DHT22;14047;50.936;4.654;2024-01-30T13:09:52;11.70;99.90
26336;DHT22;14047;50.936;4.654;2024-01-30T13:12:18;11.80;99.90
26336;DHT22;14047;50.936;4.654;2024-01-30T13:14:44;11.80;99.90
26336;DHT22;14047;50.936;4.654;2024-01-30T13:17:10;11.80;99.90
26336;DHT22;14047;50.936;4.654;2024-01-30T13:19:36;11.80;99.90
26336;DHT22;14047;50.936;4.654;2024-01-30T13:22:02;11.60;99.90
26336;DHT22;14047;50.936;4.654;2024-01-30T13:24:28;11.60;99.90
26336;DHT22;14047;50.936;4.654;2024-01-30T13:26:54;11.50;99.90
26336;DHT22;14047;50.936;4.654;2024-01-30T13:29:20;11.40;99.90
26336;DHT22;14047;50.936;4.654;2024-01-30T13:31:46;11.40;99.90
26336;DHT22;14047;50.936;4.654;2024-01-30T13:34:12;11.30;99.90
26336;DHT22;14047;50.936;4.654;2024-01-30T13:36:39;11.30;99.90
26336;DHT22;14047;50.936;4.654;2024-01-30T13:39:05;11.30;99.90
26336;DHT22;14047;50.936;4.654;2024-01-30T13:41:35;11.20;99.90
26336;DHT22;14047;50.936;4.654;2024-01-30T13:44:01;11.20;99.90
26336;DHT22;14047;50.936;4.654;2024-01-30T13:46:30;11.10;99.90
26336;DHT22;14047;50.936;4.654;2024-01-30T13:48:56;11.20;99.90
26336;DHT22;14047;50.936;4.654;2024-01-30T13:51:22;11.30;99.90
26336;DHT22;14047;50.936;4.654;2024-01-30T13:53:48;11.20;99.90
26336;DHT22;14047;50.936;4.654;2024-01-30T13:56:16;11.00;99.90
26336;DHT22;14047;50.936;4.654;2024-01-30T13:58:42;10.90;99.90
26336;DHT22;14047;50.936;4.654;2024-01-30T14:01:08;10.90;99.90
26336;DHT22;14047;50.936;4.654;2024-01-30T14:03:35;11.10;99.90
26336;DHT22;14047;50.936;4.654;2024-01-30T14:06:04;11.00;99.90
26336;DHT22;14047;50.936;4.654;2024-01-30T14:08:31;11.10;99.90
26336;DHT22;14047;50.936;4.654;2024-01-30T14:10:58;11.10;99.90
26336;DHT22;14047;50.936;4.654;2024-01-30T14:13:24;11.10;99.90
26336;DHT22;14047;50.936;4.654;2024-01-30T14:15:51;11.30;99.90
26336;DHT22;14047;50.936;4.654;2024-01-30T14:18:18;11.40;99.90
26336;DHT22;14047;50.936;4.654;2024-01-30T14:20:44;11.50;99.90
26336;DHT22;14047;50.936;4.654;2024-01-30T14:23:10;11.40;99.90
26336;DHT22;14047;50.936;4.654;2024-01-30T14:25:36;11.40;99.90
26336;DHT22;14047;50.936;4.654;2024-01-30T14:28:02;11.40;99.90
26336;DHT22;14047;50.936;4.654;2024-01-30T14:30:28;11.40;99.90
26336;DHT22;14047;50.936;4.654;2024-01-30T14:32:54;11.40;99.90
26336;DHT22;14047;50.936;4.654;2024-01-30T14:35:20;11.40;99.90
26336;DHT22;14047;50.936;4.654;2024-01-30T14:37:46;11.50;99.90
26336;DHT22;14047;50.936;4.654;2024-01-30T14:40:12;11.40;99.90
26336;DHT22;14047;50.936;4.654;2024-01-30T14:42:38;11.50;99.90
26336;DHT22;14047;50.936;4.654;2024-01-30T14:45:05;11.30;99.90
26336;DHT22;14047;50.936;4.654;2024-01-30T14:47:31;11.30;99.90
26336;DHT22;14047;50.936;4.654;2024-01-30T14:49:57;11.20;99.90
26336;DHT22;14047;50.936;4.654;2024-01-30T14:52:23;11.20;99.90
26336;DHT22;14047;50.936;4.654;2024-01-30T14:54:49;11.00;99.90
26336;DHT22;14047;50.936;4.654;2024-01-30T14:57:15;10.90;99.90
26336;DHT22;14047;50.936;4.654;2024-01-30T14:59:42;10.80;99.90
26336;DHT22;14047;50.936;4.654;2024-01-30T15:02:09;10.80;99.90
26336;DHT22;14047;50.936;4.654;2024-01-30T15:04:35;10.80;99.90
26336;DHT22;14047;50.936;4.654;2024-01-30T15:07:01;10.80;99.90
26336;DHT22;14047;50.936;4.654;2024-01-30T15:09:27;10.70;99.90
26336;DHT22;14047;50.936;4.654;2024-01-30T15:11:53;10.70;99.90
26336;DHT22;14047;50.936;4.654;2024-01-30T15:14:19;10.70;99.90
26336;DHT22;14047;50.936;4.654;2024-01-30T15:16:45;10.60;99.90
26336;DHT22;14047;50.936;4.654;2024-01-30T15:19:12;10.60;99.90
26336;DHT22;14047;50.936;4.654;2024-01-30T15:21:41;10.50;99.90
26336;DHT22;14047;50.936;4.654;2024-01-30T15:24:07;10.30;99.90
26336;DHT22;14047;50.936;4.654;2024-01-30T15:26:36;10.30;99.90